createdAt,value
2022-10-06T00:03:31.040Z,12.86
2022-10-06T00:13:35.956Z,12.58
2022-10-06T00:23:39.202Z,12.65
2022-10-06T00:33:43.957Z,12.56
2022-10-06T00:43:49.909Z,12.46
2022-10-06T00:53:54.568Z,12.26
2022-10-06T01:04:01.424Z,12.15
2022-10-06T01:14:06.064Z,12.00
2022-10-06T01:24:10.785Z,11.71
2022-10-06T01:34:13.978Z,11.76
2022-10-06T01:44:18.485Z,11.60
2022-10-06T01:54:21.498Z,11.19
2022-10-06T02:04:26.040Z,11.06
2022-10-06T02:14:31.591Z,11.15
2022-10-06T02:24:36.052Z,11.02
2022-10-06T02:34:39.292Z,10.96
2022-10-06T02:44:43.761Z,10.78
2022-10-06T02:54:47.096Z,10.62
2022-10-06T03:04:51.624Z,10.49
2022-10-06T03:14:54.735Z,10.38
2022-10-06T03:24:59.175Z,10.33
2022-10-06T03:35:02.356Z,10.25
2022-10-06T03:45:08.052Z,10.24
2022-10-06T03:55:11.162Z,10.16
2022-10-06T04:05:15.773Z,10.15
2022-10-06T04:15:18.900Z,9.78
2022-10-06T04:25:23.610Z,9.94
2022-10-06T04:35:27.304Z,9.79
2022-10-06T04:45:31.863Z,9.64
2022-10-06T04:55:35.079Z,9.70
2022-10-06T05:05:39.553Z,9.83
2022-10-06T05:15:42.772Z,9.61
2022-10-06T05:25:52.824Z,9.68
2022-10-06T05:35:57.046Z,9.66
2022-10-06T05:46:03.144Z,9.88
2022-10-06T05:56:08.510Z,10.43
2022-10-06T06:06:21.017Z,11.20
2022-10-06T06:16:24.258Z,12.16
2022-10-06T06:26:29.954Z,12.25
2022-10-06T06:36:35.979Z,12.52
2022-10-06T06:46:43.141Z,12.68
2022-10-06T06:56:48.834Z,12.89
2022-10-06T07:06:58.390Z,12.99
2022-10-06T07:17:19.192Z,13.20
2022-10-06T07:27:23.732Z,13.55
2022-10-06T07:37:27.356Z,14.15
2022-10-06T07:47:32.205Z,14.92
2022-10-06T07:57:35.856Z,15.44
2022-10-06T08:07:40.939Z,16.01
2022-10-06T08:17:45.424Z,16.59
2022-10-06T08:27:53.387Z,16.96
2022-10-06T08:37:56.851Z,17.32
2022-10-06T08:48:04.220Z,17.03
2022-10-06T08:58:28.926Z,18.34
2022-10-06T09:08:46.582Z,18.99
2022-10-06T09:19:08.145Z,19.50
2022-10-06T09:29:14.644Z,20.03
2022-10-06T09:39:26.915Z,19.72
2022-10-06T09:49:32.418Z,20.27
2022-10-06T09:59:40.116Z,20.33
2022-10-06T10:09:44.858Z,20.57
2022-10-06T10:19:54.272Z,20.74
2022-10-06T10:30:09.413Z,20.82
2022-10-06T10:40:30.481Z,21.46
2022-10-06T10:50:38.860Z,21.84
2022-10-06T11:00:44.310Z,21.75
2022-10-06T11:10:51.630Z,21.87
2022-10-06T11:20:59.137Z,22.66
2022-10-06T11:31:10.966Z,22.80
2022-10-06T11:41:20.076Z,23.16
2022-10-06T11:51:31.783Z,23.47
2022-10-06T12:01:57.536Z,22.98
2022-10-06T12:12:03.359Z,22.88
2022-10-06T12:22:12.495Z,23.29
2022-10-06T12:32:32.152Z,23.00
2022-10-06T12:42:35.324Z,22.87
2022-10-06T12:52:46.155Z,22.71
2022-10-06T13:02:49.304Z,23.20
2022-10-06T13:12:55.457Z,23.36
2022-10-06T13:23:00.565Z,23.56
2022-10-06T13:33:05.131Z,23.49
2022-10-06T13:43:16.437Z,23.81
2022-10-06T13:53:29.245Z,23.77
2022-10-06T14:13:49.400Z,23.26
2022-10-06T14:23:53.085Z,23.30
2022-10-06T14:33:58.081Z,23.16
2022-10-06T14:44:03.106Z,22.98
2022-10-06T14:54:10.191Z,22.85
2022-10-06T15:04:14.792Z,22.50
2022-10-06T15:14:19.282Z,22.30
2022-10-06T15:24:22.484Z,22.09
2022-10-06T15:34:28.057Z,21.87
2022-10-06T15:44:34.552Z,21.53
2022-10-06T15:54:41.249Z,21.44
2022-10-06T16:04:57.284Z,20.98
2022-10-06T16:15:01.982Z,20.54
2022-10-06T16:25:05.702Z,20.19
2022-10-06T16:35:14.701Z,19.88
2022-10-06T16:45:20.453Z,19.57
2022-10-06T16:55:25.137Z,19.40
2022-10-06T17:05:29.092Z,19.17
2022-10-06T17:15:33.800Z,19.01
2022-10-06T17:25:37.097Z,18.76
2022-10-06T17:35:41.771Z,18.56
2022-10-06T17:45:46.313Z,18.44
2022-10-06T17:55:50.843Z,18.23
2022-10-06T18:05:58.852Z,17.97
2022-10-06T18:16:03.351Z,17.89
2022-10-06T18:26:07.006Z,17.65
2022-10-06T18:36:13.767Z,17.47
2022-10-06T18:46:36.334Z,17.26
2022-10-06T18:56:40.918Z,16.95
2022-10-06T19:06:46.681Z,16.85
2022-10-06T19:16:54.154Z,16.77
2022-10-06T19:26:58.804Z,16.59
2022-10-06T19:37:04.753Z,16.49
2022-10-06T19:47:08.299Z,16.23
2022-10-06T19:57:13.453Z,16.26
2022-10-06T20:07:16.837Z,16.14
2022-10-06T20:17:22.224Z,16.18
2022-10-06T20:27:26.235Z,15.98
2022-10-06T20:37:32.311Z,15.79
2022-10-06T20:47:35.718Z,15.67
2022-10-06T20:57:40.137Z,15.52
2022-10-06T21:07:43.828Z,15.39
2022-10-06T21:17:48.973Z,15.24
2022-10-06T21:27:52.352Z,15.21
2022-10-06T21:37:56.718Z,15.04
2022-10-06T21:47:59.825Z,15.08
2022-10-06T21:58:04.292Z,14.87
2022-10-06T22:08:07.462Z,14.82
2022-10-06T22:18:11.891Z,14.74
2022-10-06T22:28:15.231Z,14.69
2022-10-06T22:38:19.647Z,14.51
2022-10-06T22:48:22.658Z,14.39
2022-10-06T22:58:27.828Z,14.37
2022-10-06T23:08:35.117Z,14.00
2022-10-06T23:18:41.522Z,14.18
2022-10-06T23:28:44.656Z,13.99
2022-10-06T23:38:49.182Z,13.51
2022-10-06T23:48:52.250Z,13.67
2022-10-06T23:58:56.761Z,13.41
